SBBR/BSB METAR and TAF weather

Enter ICAO airport designator
Station Type Date Time Source
SBBR METAR 2021/05/15 01:00 UTC NOAA

SBBR 150100Z 28002KT CAVOK 19/12 Q1021


Station Type Date Time Source
SBBR Decoded METAR 2021/05/15 01:00 UTC NOAA

Brasilia Aeroporto , Brazil (SBBR) 15-52S 047-56W 1061M
May 14, 2021 - 09:00 PM EDT / 2021.05.15 0100 UTC
Wind: from the W (280 degrees) at 2 MPH (2 KT):0
Visibility: greater than 7 mile(s):0
Temperature: 66 F (19 C)
Dew Point: 53 F (12 C)
Relative Humidity: 63%
Pressure (altimeter): 30.15 in. Hg (1021 hPa)
ob: SBBR 150100Z 28002KT CAVOK 19/12 Q1021
cycle: 1

Station Type Date Time Source
SBBR TAF 2021/05/15 00:00 UTC NOAA

TAF SBBR 142200Z 1500/1524 06008KT CAVOK TN14/1509Z TX27/1517Z
BECMG 1501/1503 24003KT
BECMG 1511/1513 06008KT
BECMG 1516/1518 10005KT SCT040
BECMG 1522/1524 CAVOK
RMK PGD

Example: see airport list